Airfield :
LOGIN :

Register | Disclaimer

   EN    FR    IT 

 










Legend :    VFR   Marginal VFR   IFR   Intensive IFR   Very Intensive IFR
Visi :
Ceiling :
>= 8 km
>= 3000ft
5 to 8 km
1000 to 3000 ft
1500m to 5 km
500 to 1000 ft
800 to 1500m
200 to 500 ft
< 800m
< 200 ft
Symbols :   Thunderstorms  Fog  Heavy snow  Heavy precipitations  Wind > 20 kt
SIGMETs :     Misc.  Thunderstorms  Icing  Turbulence  Mountain Waves  Volcanic Ashes







- Airport Elevation : 194 ft
- IATA code : LME
- Download approach charts


LFRM - Le Mans

CURRENT METAR :
  • 222330Z AUTO 34006KT 300V010 9999 FEW032 21/14 Q1017

EXPIRED METARs :
  • 222300Z AUTO 36006KT 310V030 CAVOK 21/14 Q1017
  • 222230Z AUTO 35008KT CAVOK 22/15 Q1017
  • 222200Z AUTO 33005KT 280V360 CAVOK 23/15 Q1017
  • 222130Z AUTO 33004KT 280V360 CAVOK 23/16 Q1016
  • 222100Z AUTO 32005KT 270V360 CAVOK 24/16 Q1016 NOSIG

TAF TAF LFRM
Valid from the 22 at 18:00 until the 23 at 03:00 UTC


221700Z 2218/2303 30007KT CAVOK
No reported NOTAMs for that airfield.



MET'MAP, your aeronautical weather chart ! - Copyright ORBIFLY December 2007 - Disclaimer

ORBIFLY MET'MAP TEAM :

Programming & Development : Alexandra Zaïnal
Concept & Development : Baudouin d'Aumeries
Co-Development & Prog : Marc-Olivier Méhu
Technical & hardware support : Manuel Goepfert

Contact : metmap@orbifly.com




SOURCES & CREDITS :

   NOAA